Terminal Aerodrome Forecast
Issued by NWS Cleveland, OH

Home | Current Version | Previous Version | Graphics & Text | Print | Product List | Glossary On
Versions: 1 2 3 4 5 6 7 8 9 10 11 12 13 14 15 16 17 18 19 20 21 22 23
000
FTUS41 KCLE 030500
TAFYNG
TAF
KYNG 030529Z 0306/0406 33005KT P6SM BKN200
     FM031200 12008KT P6SM SCT040 OVC100
     FM031700 15012KT 4SM -FZRASNPL BR SCT015 OVC030
     FM032000 17015KT 2SM -RA BR OVC005
     FM040000 20015KT 3SM -SHRA BR OVC005
     FM040500 25012KT 5SM -SHRA BR OVC005=

USA.gov is the U.S. government's official web portal to all federal, state and local government web resources and services.